sensor_id;sensor_type;location;lat;lon;timestamp;P1;durP1;ratioP1;P2;durP2;ratioP2
38264;SDS011;24062;47.480;8.768;2024-01-15T00:01:46;2.40;;;1.30;;
38264;SDS011;24062;47.480;8.768;2024-01-15T00:04:13;4.60;;;1.73;;
38264;SDS011;24062;47.480;8.768;2024-01-15T00:06:40;2.00;;;1.30;;
38264;SDS011;24062;47.480;8.768;2024-01-15T00:09:07;2.73;;;1.40;;
38264;SDS011;24062;47.480;8.768;2024-01-15T00:11:34;2.03;;;1.37;;
38264;SDS011;24062;47.480;8.768;2024-01-15T00:14:00;2.10;;;1.60;;
38264;SDS011;24062;47.480;8.768;2024-01-15T00:16:28;1.80;;;1.40;;
38264;SDS011;24062;47.480;8.768;2024-01-15T00:18:56;1.93;;;1.30;;
38264;SDS011;24062;47.480;8.768;2024-01-15T00:21:23;2.20;;;1.40;;
38264;SDS011;24062;47.480;8.768;2024-01-15T00:23:50;2.80;;;1.30;;
38264;SDS011;24062;47.480;8.768;2024-01-15T00:26:17;1.97;;;1.40;;
38264;SDS011;24062;47.480;8.768;2024-01-15T00:28:44;2.37;;;1.30;;
38264;SDS011;24062;47.480;8.768;2024-01-15T00:31:10;2.00;;;1.50;;
38264;SDS011;24062;47.480;8.768;2024-01-15T00:33:37;2.10;;;1.40;;
38264;SDS011;24062;47.480;8.768;2024-01-15T00:36:06;1.97;;;1.13;;
38264;SDS011;24062;47.480;8.768;2024-01-15T00:38:33;2.40;;;1.70;;
38264;SDS011;24062;47.480;8.768;2024-01-15T00:41:00;2.20;;;1.20;;
38264;SDS011;24062;47.480;8.768;2024-01-15T00:43:28;2.50;;;1.30;;
38264;SDS011;24062;47.480;8.768;2024-01-15T00:45:54;1.60;;;1.10;;
38264;SDS011;24062;47.480;8.768;2024-01-15T00:48:21;1.70;;;1.10;;
38264;SDS011;24062;47.480;8.768;2024-01-15T00:50:48;1.97;;;1.10;;
38264;SDS011;24062;47.480;8.768;2024-01-15T00:53:16;3.17;;;1.47;;
38264;SDS011;24062;47.480;8.768;2024-01-15T00:55:43;2.90;;;1.43;;
38264;SDS011;24062;47.480;8.768;2024-01-15T00:58:10;1.73;;;1.27;;
38264;SDS011;24062;47.480;8.768;2024-01-15T01:00:37;1.90;;;1.30;;
38264;SDS011;24062;47.480;8.768;2024-01-15T01:03:04;2.00;;;1.40;;
38264;SDS011;24062;47.480;8.768;2024-01-15T01:05:31;2.13;;;1.30;;
38264;SDS011;24062;47.480;8.768;2024-01-15T01:07:57;1.83;;;1.30;;
38264;SDS011;24062;47.480;8.768;2024-01-15T01:10:26;1.90;;;1.30;;
38264;SDS011;24062;47.480;8.768;2024-01-15T01:12:53;3.93;;;1.03;;
38264;SDS011;24062;47.480;8.768;2024-01-15T01:15:20;2.70;;;1.20;;
38264;SDS011;24062;47.480;8.768;2024-01-15T01:17:47;1.80;;;1.40;;
38264;SDS011;24062;47.480;8.768;2024-01-15T01:20:14;1.60;;;1.00;;
38264;SDS011;24062;47.480;8.768;2024-01-15T01:22:41;1.90;;;1.20;;
38264;SDS011;24062;47.480;8.768;2024-01-15T01:25:08;1.70;;;1.10;;
38264;SDS011;24062;47.480;8.768;2024-01-15T01:27:36;1.60;;;0.90;;
38264;SDS011;24062;47.480;8.768;2024-01-15T01:30:04;1.80;;;1.23;;
38264;SDS011;24062;47.480;8.768;2024-01-15T01:32:31;2.07;;;1.53;;
38264;SDS011;24062;47.480;8.768;2024-01-15T01:34:58;1.70;;;1.00;;
38264;SDS011;24062;47.480;8.768;2024-01-15T01:37:25;5.10;;;1.10;;
38264;SDS011;24062;47.480;8.768;2024-01-15T01:39:52;1.80;;;1.10;;
38264;SDS011;24062;47.480;8.768;2024-01-15T01:42:19;1.90;;;1.40;;
38264;SDS011;24062;47.480;8.768;2024-01-15T01:44:47;1.90;;;0.90;;
38264;SDS011;24062;47.480;8.768;2024-01-15T01:47:14;1.77;;;1.20;;
38264;SDS011;24062;47.480;8.768;2024-01-15T01:49:41;1.77;;;1.17;;
38264;SDS011;24062;47.480;8.768;2024-01-15T01:52:08;1.70;;;1.00;;
38264;SDS011;24062;47.480;8.768;2024-01-15T01:54:36;4.03;;;1.10;;
38264;SDS011;24062;47.480;8.768;2024-01-15T01:57:04;1.83;;;1.10;;
38264;SDS011;24062;47.480;8.768;2024-01-15T01:59:32;1.80;;;1.20;;
38264;SDS011;24062;47.480;8.768;2024-01-15T02:02:02;2.00;;;1.30;;
38264;SDS011;24062;47.480;8.768;2024-01-15T02:04:30;1.90;;;1.30;;
38264;SDS011;24062;47.480;8.768;2024-01-15T02:07:00;1.83;;;1.30;;
38264;SDS011;24062;47.480;8.768;2024-01-15T02:09:27;1.90;;;1.20;;
38264;SDS011;24062;47.480;8.768;2024-01-15T02:11:54;1.90;;;1.10;;
38264;SDS011;24062;47.480;8.768;2024-01-15T02:14:21;1.67;;;1.13;;
38264;SDS011;24062;47.480;8.768;2024-01-15T02:16:48;1.83;;;1.20;;
38264;SDS011;24062;47.480;8.768;2024-01-15T02:19:17;1.70;;;1.00;;
38264;SDS011;24062;47.480;8.768;2024-01-15T02:21:44;1.50;;;0.90;;
38264;SDS011;24062;47.480;8.768;2024-01-15T02:24:12;1.70;;;1.13;;
38264;SDS011;24062;47.480;8.768;2024-01-15T02:26:39;2.00;;;1.53;;
38264;SDS011;24062;47.480;8.768;2024-01-15T02:29:07;1.70;;;1.30;;
38264;SDS011;24062;47.480;8.768;2024-01-15T02:31:34;1.80;;;1.20;;
38264;SDS011;24062;47.480;8.768;2024-01-15T02:34:02;1.80;;;1.23;;
38264;SDS011;24062;47.480;8.768;2024-01-15T02:36:28;1.90;;;1.57;;
38264;SDS011;24062;47.480;8.768;2024-01-15T02:38:55;2.20;;;1.57;;
38264;SDS011;24062;47.480;8.768;2024-01-15T02:41:24;1.80;;;1.40;;
38264;SDS011;24062;47.480;8.768;2024-01-15T02:43:50;1.70;;;1.10;;
38264;SDS011;24062;47.480;8.768;2024-01-15T02:46:17;1.60;;;1.07;;
38264;SDS011;24062;47.480;8.768;2024-01-15T02:48:44;1.70;;;0.97;;
38264;SDS011;24062;47.480;8.768;2024-01-15T02:51:11;1.90;;;1.17;;
38264;SDS011;24062;47.480;8.768;2024-01-15T02:53:38;1.60;;;1.10;;
38264;SDS011;24062;47.480;8.768;2024-01-15T02:56:06;2.27;;;1.23;;
38264;SDS011;24062;47.480;8.768;2024-01-15T02:58:35;1.70;;;1.30;;
38264;SDS011;24062;47.480;8.768;2024-01-15T03:01:01;2.30;;;1.70;;
38264;SDS011;24062;47.480;8.768;2024-01-15T03:03:29;2.47;;;1.50;;
38264;SDS011;24062;47.480;8.768;2024-01-15T03:05:55;1.77;;;1.07;;
38264;SDS011;24062;47.480;8.768;2024-01-15T03:08:22;1.60;;;1.07;;
38264;SDS011;24062;47.480;8.768;2024-01-15T03:10:49;3.70;;;1.10;;
38264;SDS011;24062;47.480;8.768;2024-01-15T03:13:16;1.90;;;1.30;;
38264;SDS011;24062;47.480;8.768;2024-01-15T03:15:45;1.60;;;0.93;;
38264;SDS011;24062;47.480;8.768;2024-01-15T03:18:12;1.60;;;1.03;;
38264;SDS011;24062;47.480;8.768;2024-01-15T03:20:39;1.63;;;1.10;;
38264;SDS011;24062;47.480;8.768;2024-01-15T03:23:06;1.87;;;1.10;;
38264;SDS011;24062;47.480;8.768;2024-01-15T03:25:33;1.80;;;1.30;;
38264;SDS011;24062;47.480;8.768;2024-01-15T03:28:00;2.00;;;1.20;;
38264;SDS011;24062;47.480;8.768;2024-01-15T03:30:27;1.50;;;0.90;;
38264;SDS011;24062;47.480;8.768;2024-01-15T03:32:55;1.90;;;1.10;;
38264;SDS011;24062;47.480;8.768;2024-01-15T03:35:22;2.03;;;1.30;;
38264;SDS011;24062;47.480;8.768;2024-01-15T03:37:48;1.73;;;1.23;;
38264;SDS011;24062;47.480;8.768;2024-01-15T03:40:15;2.20;;;1.40;;
38264;SDS011;24062;47.480;8.768;2024-01-15T03:42:42;1.80;;;1.30;;
38264;SDS011;24062;47.480;8.768;2024-01-15T03:45:09;1.80;;;1.13;;
38264;SDS011;24062;47.480;8.768;2024-01-15T03:47:36;1.57;;;1.03;;
38264;SDS011;24062;47.480;8.768;2024-01-15T03:50:05;1.70;;;0.90;;
38264;SDS011;24062;47.480;8.768;2024-01-15T03:52:32;1.80;;;1.10;;
38264;SDS011;24062;47.480;8.768;2024-01-15T03:54:59;2.00;;;1.30;;
38264;SDS011;24062;47.480;8.768;2024-01-15T03:57:26;1.80;;;1.10;;
38264;SDS011;24062;47.480;8.768;2024-01-15T03:59:53;1.80;;;1.10;;
38264;SDS011;24062;47.480;8.768;2024-01-15T04:02:20;2.00;;;1.10;;
38264;SDS011;24062;47.480;8.768;2024-01-15T04:04:46;2.07;;;1.43;;
38264;SDS011;24062;47.480;8.768;2024-01-15T04:07:15;3.30;;;1.33;;
38264;SDS011;24062;47.480;8.768;2024-01-15T04:09:41;2.10;;;1.30;;
38264;SDS011;24062;47.480;8.768;2024-01-15T04:12:08;2.00;;;1.60;;
38264;SDS011;24062;47.480;8.768;2024-01-15T04:14:35;1.90;;;1.20;;
38264;SDS011;24062;47.480;8.768;2024-01-15T04:17:02;1.87;;;1.20;;
38264;SDS011;24062;47.480;8.768;2024-01-15T04:19:29;2.10;;;1.17;;
38264;SDS011;24062;47.480;8.768;2024-01-15T04:21:56;1.90;;;1.40;;
38264;SDS011;24062;47.480;8.768;2024-01-15T04:24:24;3.00;;;1.57;;
38264;SDS011;24062;47.480;8.768;2024-01-15T04:26:51;2.03;;;1.53;;
38264;SDS011;24062;47.480;8.768;2024-01-15T04:29:18;2.13;;;1.33;;
38264;SDS011;24062;47.480;8.768;2024-01-15T04:31:45;1.93;;;1.53;;
38264;SDS011;24062;47.480;8.768;2024-01-15T04:34:12;5.10;;;1.40;;
38264;SDS011;24062;47.480;8.768;2024-01-15T04:36:39;1.90;;;1.47;;
38264;SDS011;24062;47.480;8.768;2024-01-15T04:39:06;2.17;;;1.73;;
38264;SDS011;24062;47.480;8.768;2024-01-15T04:41:34;2.50;;;1.77;;
38264;SDS011;24062;47.480;8.768;2024-01-15T04:44:01;2.20;;;1.60;;
38264;SDS011;24062;47.480;8.768;2024-01-15T04:46:28;4.03;;;1.37;;
38264;SDS011;24062;47.480;8.768;2024-01-15T04:48:55;1.93;;;1.40;;
38264;SDS011;24062;47.480;8.768;2024-01-15T04:51:22;2.33;;;1.30;;
38264;SDS011;24062;47.480;8.768;2024-01-15T04:53:49;2.00;;;1.30;;
38264;SDS011;24062;47.480;8.768;2024-01-15T04:56:16;2.20;;;1.57;;
38264;SDS011;24062;47.480;8.768;2024-01-15T04:58:44;2.33;;;1.40;;
38264;SDS011;24062;47.480;8.768;2024-01-15T05:01:11;2.27;;;1.50;;
38264;SDS011;24062;47.480;8.768;2024-01-15T05:03:38;2.17;;;1.43;;
38264;SDS011;24062;47.480;8.768;2024-01-15T05:06:05;2.17;;;1.20;;
38264;SDS011;24062;47.480;8.768;2024-01-15T05:08:33;2.83;;;1.80;;
38264;SDS011;24062;47.480;8.768;2024-01-15T05:11:00;2.37;;;1.60;;
38264;SDS011;24062;47.480;8.768;2024-01-15T05:13:27;1.90;;;1.40;;
38264;SDS011;24062;47.480;8.768;2024-01-15T05:15:55;4.83;;;1.63;;
38264;SDS011;24062;47.480;8.768;2024-01-15T05:18:22;2.07;;;1.57;;
38264;SDS011;24062;47.480;8.768;2024-01-15T05:20:49;2.07;;;1.50;;
38264;SDS011;24062;47.480;8.768;2024-01-15T05:23:17;1.77;;;1.47;;
38264;SDS011;24062;47.480;8.768;2024-01-15T05:25:44;2.17;;;1.57;;
38264;SDS011;24062;47.480;8.768;2024-01-15T05:28:11;2.40;;;1.80;;
38264;SDS011;24062;47.480;8.768;2024-01-15T05:30:38;2.50;;;1.47;;
38264;SDS011;24062;47.480;8.768;2024-01-15T05:33:06;2.47;;;1.87;;
38264;SDS011;24062;47.480;8.768;2024-01-15T05:35:33;2.20;;;1.87;;
38264;SDS011;24062;47.480;8.768;2024-01-15T05:38:00;1.70;;;1.33;;
38264;SDS011;24062;47.480;8.768;2024-01-15T05:40:27;2.30;;;1.43;;
38264;SDS011;24062;47.480;8.768;2024-01-15T05:42:54;1.90;;;1.53;;
38264;SDS011;24062;47.480;8.768;2024-01-15T05:45:21;2.00;;;1.70;;
38264;SDS011;24062;47.480;8.768;2024-01-15T05:47:48;1.83;;;1.40;;
38264;SDS011;24062;47.480;8.768;2024-01-15T05:50:16;3.00;;;1.83;;
38264;SDS011;24062;47.480;8.768;2024-01-15T05:52:43;2.10;;;1.73;;
38264;SDS011;24062;47.480;8.768;2024-01-15T05:55:10;2.20;;;1.73;;
38264;SDS011;24062;47.480;8.768;2024-01-15T05:57:37;2.60;;;1.90;;
38264;SDS011;24062;47.480;8.768;2024-01-15T06:00:04;2.83;;;1.67;;
38264;SDS011;24062;47.480;8.768;2024-01-15T06:02:33;2.00;;;1.63;;
38264;SDS011;24062;47.480;8.768;2024-01-15T06:05:00;2.00;;;1.40;;
38264;SDS011;24062;47.480;8.768;2024-01-15T06:07:29;2.50;;;1.97;;
38264;SDS011;24062;47.480;8.768;2024-01-15T06:09:56;2.17;;;1.70;;
38264;SDS011;24062;47.480;8.768;2024-01-15T06:12:23;2.13;;;1.60;;
38264;SDS011;24062;47.480;8.768;2024-01-15T06:14:50;1.90;;;1.43;;
38264;SDS011;24062;47.480;8.768;2024-01-15T06:17:17;1.90;;;1.47;;
38264;SDS011;24062;47.480;8.768;2024-01-15T06:19:44;2.73;;;2.13;;
38264;SDS011;24062;47.480;8.768;2024-01-15T06:22:11;1.83;;;1.37;;
38264;SDS011;24062;47.480;8.768;2024-01-15T06:24:39;2.00;;;1.60;;
38264;SDS011;24062;47.480;8.768;2024-01-15T06:27:06;2.67;;;1.90;;
38264;SDS011;24062;47.480;8.768;2024-01-15T06:29:33;2.77;;;1.63;;
38264;SDS011;24062;47.480;8.768;2024-01-15T06:32:03;1.97;;;1.53;;
38264;SDS011;24062;47.480;8.768;2024-01-15T06:34:31;2.47;;;1.87;;
38264;SDS011;24062;47.480;8.768;2024-01-15T06:36:57;2.83;;;1.73;;
38264;SDS011;24062;47.480;8.768;2024-01-15T06:39:24;2.77;;;1.60;;
38264;SDS011;24062;47.480;8.768;2024-01-15T06:41:52;3.50;;;1.87;;
38264;SDS011;24062;47.480;8.768;2024-01-15T06:44:19;2.77;;;1.97;;
38264;SDS011;24062;47.480;8.768;2024-01-15T06:46:47;3.27;;;2.10;;
38264;SDS011;24062;47.480;8.768;2024-01-15T06:49:14;3.53;;;1.73;;
38264;SDS011;24062;47.480;8.768;2024-01-15T06:51:41;3.53;;;1.73;;
38264;SDS011;24062;47.480;8.768;2024-01-15T06:54:08;4.97;;;1.70;;
38264;SDS011;24062;47.480;8.768;2024-01-15T06:56:35;2.33;;;1.60;;
38264;SDS011;24062;47.480;8.768;2024-01-15T06:59:03;2.77;;;1.57;;
38264;SDS011;24062;47.480;8.768;2024-01-15T07:01:30;2.13;;;1.93;;
38264;SDS011;24062;47.480;8.768;2024-01-15T07:03:57;2.93;;;1.80;;
38264;SDS011;24062;47.480;8.768;2024-01-15T07:06:24;2.40;;;1.70;;
38264;SDS011;24062;47.480;8.768;2024-01-15T07:08:51;4.10;;;2.27;;
38264;SDS011;24062;47.480;8.768;2024-01-15T07:11:18;3.63;;;2.20;;
38264;SDS011;24062;47.480;8.768;2024-01-15T07:13:45;2.67;;;1.70;;
38264;SDS011;24062;47.480;8.768;2024-01-15T07:16:13;4.90;;;2.03;;
38264;SDS011;24062;47.480;8.768;2024-01-15T07:18:40;5.10;;;1.80;;
38264;SDS011;24062;47.480;8.768;2024-01-15T07:21:07;2.93;;;1.70;;
38264;SDS011;24062;47.480;8.768;2024-01-15T07:23:34;3.60;;;2.17;;
38264;SDS011;24062;47.480;8.768;2024-01-15T07:26:01;2.30;;;2.03;;
38264;SDS011;24062;47.480;8.768;2024-01-15T07:28:28;3.30;;;2.03;;
38264;SDS011;24062;47.480;8.768;2024-01-15T07:30:55;2.87;;;1.80;;
38264;SDS011;24062;47.480;8.768;2024-01-15T07:33:24;2.47;;;1.73;;
38264;SDS011;24062;47.480;8.768;2024-01-15T07:35:51;2.70;;;1.80;;
38264;SDS011;24062;47.480;8.768;2024-01-15T07:38:18;2.60;;;2.10;;
38264;SDS011;24062;47.480;8.768;2024-01-15T07:40:45;4.37;;;2.13;;
38264;SDS011;24062;47.480;8.768;2024-01-15T07:43:14;2.60;;;1.83;;
38264;SDS011;24062;47.480;8.768;2024-01-15T07:45:41;2.73;;;2.13;;
38264;SDS011;24062;47.480;8.768;2024-01-15T07:48:08;2.63;;;2.00;;
38264;SDS011;24062;47.480;8.768;2024-01-15T07:50:36;3.37;;;2.40;;
38264;SDS011;24062;47.480;8.768;2024-01-15T07:53:04;2.20;;;1.70;;
38264;SDS011;24062;47.480;8.768;2024-01-15T07:55:30;2.63;;;1.60;;
38264;SDS011;24062;47.480;8.768;2024-01-15T07:57:58;2.27;;;1.60;;
38264;SDS011;24062;47.480;8.768;2024-01-15T08:00:25;2.50;;;1.63;;
38264;SDS011;24062;47.480;8.768;2024-01-15T08:02:51;2.57;;;1.87;;
38264;SDS011;24062;47.480;8.768;2024-01-15T08:05:19;3.23;;;2.40;;
38264;SDS011;24062;47.480;8.768;2024-01-15T08:07:48;2.60;;;1.90;;
38264;SDS011;24062;47.480;8.768;2024-01-15T08:10:14;2.80;;;2.20;;
38264;SDS011;24062;47.480;8.768;2024-01-15T08:12:41;2.77;;;2.23;;
38264;SDS011;24062;47.480;8.768;2024-01-15T08:15:08;4.07;;;2.00;;
38264;SDS011;24062;47.480;8.768;2024-01-15T08:17:35;2.90;;;1.93;;
38264;SDS011;24062;47.480;8.768;2024-01-15T08:20:02;6.77;;;1.80;;
38264;SDS011;24062;47.480;8.768;2024-01-15T08:22:30;2.43;;;2.17;;
38264;SDS011;24062;47.480;8.768;2024-01-15T08:24:58;4.50;;;2.17;;
38264;SDS011;24062;47.480;8.768;2024-01-15T08:27:25;2.50;;;2.20;;
38264;SDS011;24062;47.480;8.768;2024-01-15T08:29:53;2.30;;;1.93;;
38264;SDS011;24062;47.480;8.768;2024-01-15T08:32:20;7.07;;;2.03;;
38264;SDS011;24062;47.480;8.768;2024-01-15T08:34:46;3.60;;;2.30;;
38264;SDS011;24062;47.480;8.768;2024-01-15T08:37:17;2.73;;;1.60;;
38264;SDS011;24062;47.480;8.768;2024-01-15T08:39:44;6.67;;;1.80;;
38264;SDS011;24062;47.480;8.768;2024-01-15T08:42:12;2.53;;;1.77;;
38264;SDS011;24062;47.480;8.768;2024-01-15T08:44:39;2.30;;;1.80;;
38264;SDS011;24062;47.480;8.768;2024-01-15T08:47:08;3.67;;;2.10;;
38264;SDS011;24062;47.480;8.768;2024-01-15T08:49:35;2.77;;;2.03;;
38264;SDS011;24062;47.480;8.768;2024-01-15T08:52:02;7.00;;;2.63;;
38264;SDS011;24062;47.480;8.768;2024-01-15T08:54:29;4.37;;;1.70;;
38264;SDS011;24062;47.480;8.768;2024-01-15T08:56:56;2.70;;;2.00;;
38264;SDS011;24062;47.480;8.768;2024-01-15T08:59:24;5.07;;;1.93;;
38264;SDS011;24062;47.480;8.768;2024-01-15T09:01:51;3.93;;;1.80;;
38264;SDS011;24062;47.480;8.768;2024-01-15T09:04:18;3.77;;;2.30;;
38264;SDS011;24062;47.480;8.768;2024-01-15T09:06:45;3.50;;;1.90;;
38264;SDS011;24062;47.480;8.768;2024-01-15T09:09:12;4.83;;;2.13;;
38264;SDS011;24062;47.480;8.768;2024-01-15T09:11:40;5.10;;;2.03;;
38264;SDS011;24062;47.480;8.768;2024-01-15T09:14:06;3.10;;;1.93;;
38264;SDS011;24062;47.480;8.768;2024-01-15T09:16:35;2.50;;;1.80;;
38264;SDS011;24062;47.480;8.768;2024-01-15T09:19:03;4.03;;;2.27;;
38264;SDS011;24062;47.480;8.768;2024-01-15T09:21:29;2.00;;;1.50;;
38264;SDS011;24062;47.480;8.768;2024-01-15T09:23:56;2.73;;;1.57;;
38264;SDS011;24062;47.480;8.768;2024-01-15T09:26:23;2.10;;;1.83;;
38264;SDS011;24062;47.480;8.768;2024-01-15T09:28:51;2.63;;;1.93;;
38264;SDS011;24062;47.480;8.768;2024-01-15T09:31:18;2.53;;;2.03;;
38264;SDS011;24062;47.480;8.768;2024-01-15T09:33:47;2.80;;;2.03;;
38264;SDS011;24062;47.480;8.768;2024-01-15T09:36:17;4.33;;;2.50;;
38264;SDS011;24062;47.480;8.768;2024-01-15T09:38:44;2.50;;;1.67;;
38264;SDS011;24062;47.480;8.768;2024-01-15T09:41:11;3.70;;;1.93;;
38264;SDS011;24062;47.480;8.768;2024-01-15T09:43:38;2.40;;;1.90;;
38264;SDS011;24062;47.480;8.768;2024-01-15T09:46:05;2.67;;;1.90;;
38264;SDS011;24062;47.480;8.768;2024-01-15T09:48:33;3.73;;;1.80;;
38264;SDS011;24062;47.480;8.768;2024-01-15T09:51:01;2.40;;;1.90;;
38264;SDS011;24062;47.480;8.768;2024-01-15T09:53:29;2.97;;;1.73;;
38264;SDS011;24062;47.480;8.768;2024-01-15T09:55:57;2.10;;;1.33;;
38264;SDS011;24062;47.480;8.768;2024-01-15T09:58:24;2.40;;;1.97;;
38264;SDS011;24062;47.480;8.768;2024-01-15T10:00:52;6.10;;;1.70;;
38264;SDS011;24062;47.480;8.768;2024-01-15T10:03:20;2.37;;;1.30;;
38264;SDS011;24062;47.480;8.768;2024-01-15T10:05:47;3.00;;;1.83;;
38264;SDS011;24062;47.480;8.768;2024-01-15T10:08:17;2.73;;;1.70;;
38264;SDS011;24062;47.480;8.768;2024-01-15T10:10:44;2.70;;;1.53;;
38264;SDS011;24062;47.480;8.768;2024-01-15T10:13:11;2.40;;;1.93;;
38264;SDS011;24062;47.480;8.768;2024-01-15T10:15:39;5.43;;;1.63;;
38264;SDS011;24062;47.480;8.768;2024-01-15T10:18:07;2.37;;;1.60;;
38264;SDS011;24062;47.480;8.768;2024-01-15T10:20:35;2.73;;;1.93;;
38264;SDS011;24062;47.480;8.768;2024-01-15T10:23:03;5.77;;;2.00;;
38264;SDS011;24062;47.480;8.768;2024-01-15T10:25:31;4.57;;;1.80;;
38264;SDS011;24062;47.480;8.768;2024-01-15T10:28:01;1.90;;;1.30;;
38264;SDS011;24062;47.480;8.768;2024-01-15T10:30:29;2.20;;;1.60;;
38264;SDS011;24062;47.480;8.768;2024-01-15T10:32:57;3.37;;;1.70;;
38264;SDS011;24062;47.480;8.768;2024-01-15T10:35:26;2.10;;;1.63;;
38264;SDS011;24062;47.480;8.768;2024-01-15T10:37:54;2.40;;;1.53;;
38264;SDS011;24062;47.480;8.768;2024-01-15T10:40:21;2.20;;;1.70;;
38264;SDS011;24062;47.480;8.768;2024-01-15T10:42:49;4.43;;;1.77;;
38264;SDS011;24062;47.480;8.768;2024-01-15T10:45:16;2.50;;;1.70;;
38264;SDS011;24062;47.480;8.768;2024-01-15T10:47:44;2.90;;;1.50;;
38264;SDS011;24062;47.480;8.768;2024-01-15T10:50:11;3.40;;;1.57;;
38264;SDS011;24062;47.480;8.768;2024-01-15T10:52:39;3.00;;;1.77;;
38264;SDS011;24062;47.480;8.768;2024-01-15T10:55:08;5.50;;;2.00;;
38264;SDS011;24062;47.480;8.768;2024-01-15T10:57:36;2.37;;;1.50;;
38264;SDS011;24062;47.480;8.768;2024-01-15T11:00:06;3.00;;;1.60;;
38264;SDS011;24062;47.480;8.768;2024-01-15T11:02:39;2.10;;;1.30;;
38264;SDS011;24062;47.480;8.768;2024-01-15T11:05:08;2.50;;;1.60;;
38264;SDS011;24062;47.480;8.768;2024-01-15T11:07:35;2.37;;;1.60;;
38264;SDS011;24062;47.480;8.768;2024-01-15T11:10:03;2.20;;;1.43;;
38264;SDS011;24062;47.480;8.768;2024-01-15T11:12:30;2.30;;;1.40;;
38264;SDS011;24062;47.480;8.768;2024-01-15T11:15:01;2.77;;;1.40;;
38264;SDS011;24062;47.480;8.768;2024-01-15T11:17:34;4.27;;;1.47;;
38264;SDS011;24062;47.480;8.768;2024-01-15T11:20:25;2.40;;;1.50;;
38264;SDS011;24062;47.480;8.768;2024-01-15T11:22:52;1.80;;;1.10;;
38264;SDS011;24062;47.480;8.768;2024-01-15T11:25:19;2.10;;;1.40;;
38264;SDS011;24062;47.480;8.768;2024-01-15T11:27:46;2.17;;;1.50;;
38264;SDS011;24062;47.480;8.768;2024-01-15T11:30:16;2.43;;;1.50;;
38264;SDS011;24062;47.480;8.768;2024-01-15T11:32:46;2.10;;;1.60;;
38264;SDS011;24062;47.480;8.768;2024-01-15T11:35:13;1.63;;;1.00;;
38264;SDS011;24062;47.480;8.768;2024-01-15T11:37:56;2.03;;;1.47;;
38264;SDS011;24062;47.480;8.768;2024-01-15T11:40:35;2.33;;;1.50;;
38264;SDS011;24062;47.480;8.768;2024-01-15T11:43:04;1.80;;;1.30;;
38264;SDS011;24062;47.480;8.768;2024-01-15T11:45:31;2.37;;;1.30;;
38264;SDS011;24062;47.480;8.768;2024-01-15T11:50:51;1.87;;;1.03;;
38264;SDS011;24062;47.480;8.768;2024-01-15T11:53:23;2.10;;;1.43;;
38264;SDS011;24062;47.480;8.768;2024-01-15T11:55:59;3.70;;;1.30;;
38264;SDS011;24062;47.480;8.768;2024-01-15T11:58:28;2.17;;;1.30;;
38264;SDS011;24062;47.480;8.768;2024-01-15T12:00:57;2.10;;;1.83;;
38264;SDS011;24062;47.480;8.768;2024-01-15T12:03:26;1.70;;;0.90;;
38264;SDS011;24062;47.480;8.768;2024-01-15T12:05:53;2.07;;;1.20;;
38264;SDS011;24062;47.480;8.768;2024-01-15T12:08:23;1.90;;;1.30;;
38264;SDS011;24062;47.480;8.768;2024-01-15T12:10:51;1.80;;;1.13;;
38264;SDS011;24062;47.480;8.768;2024-01-15T12:13:18;2.20;;;1.33;;
38264;SDS011;24062;47.480;8.768;2024-01-15T12:15:45;1.87;;;1.13;;
38264;SDS011;24062;47.480;8.768;2024-01-15T12:18:14;2.17;;;1.30;;
38264;SDS011;24062;47.480;8.768;2024-01-15T12:20:43;1.90;;;1.30;;
38264;SDS011;24062;47.480;8.768;2024-01-15T12:23:12;2.30;;;1.33;;
38264;SDS011;24062;47.480;8.768;2024-01-15T12:25:39;2.53;;;1.40;;
38264;SDS011;24062;47.480;8.768;2024-01-15T12:28:07;2.77;;;1.00;;
38264;SDS011;24062;47.480;8.768;2024-01-15T12:30:34;2.47;;;1.13;;
38264;SDS011;24062;47.480;8.768;2024-01-15T12:33:03;1.70;;;1.00;;
38264;SDS011;24062;47.480;8.768;2024-01-15T12:35:30;3.47;;;1.20;;
38264;SDS011;24062;47.480;8.768;2024-01-15T12:37:59;2.00;;;1.40;;
38264;SDS011;24062;47.480;8.768;2024-01-15T12:40:27;2.00;;;1.37;;
38264;SDS011;24062;47.480;8.768;2024-01-15T12:42:54;4.90;;;1.80;;
38264;SDS011;24062;47.480;8.768;2024-01-15T12:45:21;1.70;;;1.17;;
38264;SDS011;24062;47.480;8.768;2024-01-15T12:47:48;2.17;;;1.37;;
38264;SDS011;24062;47.480;8.768;2024-01-15T12:50:16;6.30;;;1.37;;
38264;SDS011;24062;47.480;8.768;2024-01-15T12:52:43;3.07;;;1.50;;
38264;SDS011;24062;47.480;8.768;2024-01-15T12:55:11;2.90;;;1.50;;
38264;SDS011;24062;47.480;8.768;2024-01-15T12:57:39;2.23;;;1.23;;
38264;SDS011;24062;47.480;8.768;2024-01-15T13:00:06;3.67;;;1.73;;
38264;SDS011;24062;47.480;8.768;2024-01-15T13:02:37;1.90;;;1.30;;
38264;SDS011;24062;47.480;8.768;2024-01-15T13:05:05;3.70;;;1.47;;
38264;SDS011;24062;47.480;8.768;2024-01-15T13:07:33;2.73;;;1.17;;
38264;SDS011;24062;47.480;8.768;2024-01-15T13:10:00;2.53;;;1.60;;
38264;SDS011;24062;47.480;8.768;2024-01-15T13:12:29;2.43;;;1.30;;
38264;SDS011;24062;47.480;8.768;2024-01-15T13:14:57;3.07;;;2.00;;
38264;SDS011;24062;47.480;8.768;2024-01-15T13:17:24;2.10;;;1.20;;
38264;SDS011;24062;47.480;8.768;2024-01-15T13:19:51;4.43;;;1.10;;
38264;SDS011;24062;47.480;8.768;2024-01-15T13:22:18;2.53;;;1.50;;
38264;SDS011;24062;47.480;8.768;2024-01-15T13:24:45;2.20;;;1.20;;
38264;SDS011;24062;47.480;8.768;2024-01-15T13:27:12;2.40;;;1.27;;
38264;SDS011;24062;47.480;8.768;2024-01-15T13:29:40;4.10;;;1.30;;
38264;SDS011;24062;47.480;8.768;2024-01-15T13:32:07;1.87;;;1.17;;
38264;SDS011;24062;47.480;8.768;2024-01-15T13:34:35;2.77;;;1.13;;
38264;SDS011;24062;47.480;8.768;2024-01-15T13:37:02;2.27;;;1.40;;
38264;SDS011;24062;47.480;8.768;2024-01-15T13:39:29;4.00;;;1.13;;
38264;SDS011;24062;47.480;8.768;2024-01-15T13:41:58;1.80;;;1.27;;
38264;SDS011;24062;47.480;8.768;2024-01-15T13:44:25;2.40;;;1.30;;
38264;SDS011;24062;47.480;8.768;2024-01-15T13:46:54;1.83;;;1.00;;
38264;SDS011;24062;47.480;8.768;2024-01-15T13:49:22;6.43;;;2.20;;
38264;SDS011;24062;47.480;8.768;2024-01-15T13:51:49;4.37;;;1.47;;
38264;SDS011;24062;47.480;8.768;2024-01-15T13:54:16;2.03;;;1.30;;
38264;SDS011;24062;47.480;8.768;2024-01-15T13:56:44;2.80;;;1.20;;
38264;SDS011;24062;47.480;8.768;2024-01-15T13:59:12;2.70;;;1.30;;
38264;SDS011;24062;47.480;8.768;2024-01-15T14:01:39;3.27;;;1.50;;
38264;SDS011;24062;47.480;8.768;2024-01-15T14:04:07;1.97;;;1.40;;
38264;SDS011;24062;47.480;8.768;2024-01-15T14:06:34;2.07;;;1.33;;
38264;SDS011;24062;47.480;8.768;2024-01-15T14:09:01;2.23;;;1.13;;
38264;SDS011;24062;47.480;8.768;2024-01-15T14:11:29;1.70;;;1.00;;
38264;SDS011;24062;47.480;8.768;2024-01-15T14:13:56;2.60;;;1.30;;
38264;SDS011;24062;47.480;8.768;2024-01-15T14:16:23;2.83;;;1.83;;
38264;SDS011;24062;47.480;8.768;2024-01-15T14:18:50;1.63;;;0.87;;
38264;SDS011;24062;47.480;8.768;2024-01-15T14:21:18;2.37;;;1.40;;
38264;SDS011;24062;47.480;8.768;2024-01-15T14:23:45;2.93;;;1.00;;
38264;SDS011;24062;47.480;8.768;2024-01-15T14:26:12;2.47;;;1.30;;
38264;SDS011;24062;47.480;8.768;2024-01-15T14:28:39;1.70;;;1.17;;
38264;SDS011;24062;47.480;8.768;2024-01-15T14:31:06;1.90;;;1.20;;
38264;SDS011;24062;47.480;8.768;2024-01-15T14:33:33;1.83;;;1.30;;
38264;SDS011;24062;47.480;8.768;2024-01-15T14:36:00;1.73;;;1.00;;
38264;SDS011;24062;47.480;8.768;2024-01-15T14:38:28;1.90;;;1.23;;
38264;SDS011;24062;47.480;8.768;2024-01-15T14:40:55;1.90;;;1.20;;
38264;SDS011;24062;47.480;8.768;2024-01-15T14:43:22;2.07;;;1.13;;
38264;SDS011;24062;47.480;8.768;2024-01-15T14:45:49;3.50;;;1.40;;
38264;SDS011;24062;47.480;8.768;2024-01-15T14:48:16;3.80;;;1.77;;
38264;SDS011;24062;47.480;8.768;2024-01-15T14:50:43;3.23;;;1.40;;
38264;SDS011;24062;47.480;8.768;2024-01-15T14:53:10;3.30;;;1.40;;